Time;durP1;ratioP1;P1;durP2;ratioP2;P2;SDS_P1;SDS_P2;PMS_P1;PMS_P2;Temp;Humidity;BMP_temperature;BMP_pressure;BME280_temperature;BME280_humidity;BME280_pressure;Samples;Min_cycle;Max_cycle;Signal;HPM_P1;HPM_P2
2020/12/05 00:00:53;;;;;;;27.30;21.63;;;3.20;99.90;;;;;;5046215;28;20053;-73
2020/12/05 00:03:19;;;;;;;28.90;21.38;;;3.20;99.90;;;;;;5043442;28;20052;-73
2020/12/05 00:05:47;;;;;;;25.35;21.17;;;3.20;99.90;;;;;;5045853;28;20052;-73
2020/12/05 00:08:13;;;;;;;25.52;21.63;;;3.10;99.90;;;;;;5044980;28;20098;-72
2020/12/05 00:10:40;;;;;;;25.73;21.02;;;3.00;99.90;;;;;;5027647;28;20041;-73
2020/12/05 00:13:06;;;;;;;32.70;23.58;;;3.10;99.90;;;;;;5045204;28;20047;-73
2020/12/05 00:15:32;;;;;;;32.42;23.48;;;3.20;99.90;;;;;;5027920;28;20168;-72
2020/12/05 00:17:58;;;;;;;36.08;24.95;;;3.20;99.90;;;;;;5043198;28;20051;-73
2020/12/05 00:20:25;;;;;;;38.35;26.20;;;3.10;99.90;;;;;;5007723;28;20049;-73
2020/12/05 00:22:51;;;;;;;37.08;27.13;;;3.00;99.90;;;;;;5037472;28;20053;-72
2020/12/05 00:25:17;;;;;;;33.45;24.77;;;3.00;99.90;;;;;;5045840;28;20147;-73
2020/12/05 00:27:43;;;;;;;35.63;25.45;;;3.00;99.90;;;;;;5043466;28;20040;-73
2020/12/05 00:30:10;;;;;;;31.40;22.98;;;3.10;99.90;;;;;;5045574;28;20045;-74
2020/12/05 00:32:36;;;;;;;34.35;24.20;;;3.10;99.90;;;;;;5027727;28;20044;-72
2020/12/05 00:35:03;;;;;;;34.50;23.48;;;3.10;99.90;;;;;;5027375;28;20048;-74
2020/12/05 00:37:30;;;;;;;32.33;23.15;;;3.20;99.90;;;;;;5027714;28;20127;-73
2020/12/05 00:39:57;;;;;;;31.45;22.30;;;3.20;99.90;;;;;;5027291;28;20165;-73
2020/12/05 00:42:24;;;;;;;28.08;21.70;;;3.10;99.90;;;;;;5043336;28;20041;-73
2020/12/05 00:44:50;;;;;;;31.27;22.23;;;3.00;99.90;;;;;;5045374;28;20053;-73
2020/12/05 00:47:17;;;;;;;30.05;21.52;;;3.10;99.90;;;;;;5027382;28;20494;-74
2020/12/05 00:49:43;;;;;;;30.30;22.38;;;3.10;99.90;;;;;;5010962;28;20060;-73
2020/12/05 00:52:10;;;;;;;33.40;24.33;;;3.20;99.90;;;;;;5044912;28;20231;-73
2020/12/05 00:54:36;;;;;;;34.90;23.35;;;3.30;99.90;;;;;;5043859;28;20056;-73
2020/12/05 00:57:02;;;;;;;31.80;23.48;;;3.30;99.90;;;;;;5008606;28;20057;-73
2020/12/05 00:59:29;;;;;;;31.38;23.15;;;3.30;99.90;;;;;;5024019;28;20061;-74
2020/12/05 01:01:55;;;;;;;30.10;22.38;;;3.20;99.90;;;;;;5039811;28;20618;-74
2020/12/05 01:04:23;;;;;;;31.90;21.83;;;3.30;99.90;;;;;;5025910;28;20570;-74
2020/12/05 01:06:49;;;;;;;28.58;20.85;;;3.30;99.90;;;;;;5045318;28;20490;-74
2020/12/05 01:09:16;;;;;;;29.67;22.80;;;3.30;99.90;;;;;;5043716;28;20496;-74
2020/12/05 01:11:47;;;;;;;28.77;21.95;;;3.30;99.90;;;;;;5026769;28;20254;-74
2020/12/05 01:14:14;;;;;;;25.92;21.42;;;3.40;99.90;;;;;;5023985;28;20041;-74
2020/12/05 01:16:40;;;;;;;27.20;21.98;;;3.40;99.90;;;;;;5023861;28;20065;-74
2020/12/05 01:19:06;;;;;;;28.42;22.08;;;3.30;99.90;;;;;;5044823;28;20055;-74
2020/12/05 01:21:33;;;;;;;29.63;22.27;;;3.30;99.90;;;;;;5044941;28;20133;-74
2020/12/05 01:23:59;;;;;;;32.58;22.85;;;3.30;99.90;;;;;;5043629;28;20060;-73
2020/12/05 01:26:25;;;;;;;28.20;22.58;;;3.30;99.90;;;;;;5023067;28;20045;-74
2020/12/05 01:28:51;;;;;;;27.45;22.83;;;3.40;99.90;;;;;;5042869;28;20528;-73
2020/12/05 01:31:18;;;;;;;31.20;23.98;;;3.60;99.90;;;;;;5042671;28;20037;-74
2020/12/05 01:33:44;;;;;;;30.60;24.40;;;3.50;99.90;;;;;;5044922;28;20060;-73
2020/12/05 01:36:10;;;;;;;30.73;22.60;;;3.40;99.90;;;;;;5043261;28;20049;-73
2020/12/05 01:38:37;;;;;;;30.77;23.40;;;3.50;99.90;;;;;;5044431;28;20063;-73
2020/12/05 01:41:03;;;;;;;32.03;23.52;;;3.50;99.90;;;;;;5026284;28;20049;-73
2020/12/05 01:43:31;;;;;;;34.08;25.02;;;3.50;99.90;;;;;;5010855;28;20062;-74
2020/12/05 01:46:04;;;;;;;31.02;24.60;;;3.40;99.90;;;;;;5022898;28;20128;-73
2020/12/05 01:48:32;;;;;;;35.00;23.08;;;3.40;99.90;;;;;;5007493;28;20049;-74
2020/12/05 01:50:58;;;;;;;28.75;22.90;;;3.50;99.90;;;;;;5023551;28;20053;-73
2020/12/05 01:53:25;;;;;;;30.27;23.88;;;3.50;99.90;;;;;;5040447;28;20076;-73
2020/12/05 01:55:51;;;;;;;28.63;22.17;;;3.60;99.90;;;;;;5039263;28;20056;-74
2020/12/05 01:58:19;;;;;;;29.77;23.02;;;3.60;99.90;;;;;;5047897;28;20061;-73
2020/12/05 02:00:46;;;;;;;29.85;24.15;;;3.40;99.90;;;;;;5045640;28;20061;-74
2020/12/05 02:03:14;;;;;;;28.58;23.48;;;3.40;99.90;;;;;;5046967;28;20044;-73
2020/12/05 02:06:02;;;;;;;32.35;23.67;;;3.40;99.90;;;;;;5046924;28;20049;-74
2020/12/05 02:09:08;;;;;;;31.15;23.13;;;3.30;99.90;;;;;;5048364;28;20052;-74
2020/12/05 02:11:39;;;;;;;27.70;22.55;;;3.40;99.90;;;;;;5046365;28;20060;-74
2020/12/05 02:14:09;;;;;;;34.45;23.48;;;3.30;99.90;;;;;;5033357;28;20409;-74
2020/12/05 02:16:39;;;;;;;28.45;23.05;;;3.20;99.90;;;;;;5046228;28;20531;-74
2020/12/05 02:19:11;;;;;;;29.17;22.65;;;3.30;99.90;;;;;;5013103;28;20056;-74
2020/12/05 02:21:39;;;;;;;29.30;22.42;;;3.20;99.90;;;;;;5030050;28;20045;-73
2020/12/05 02:24:05;;;;;;;27.63;21.63;;;3.20;99.90;;;;;;5047308;28;20056;-74
2020/12/05 02:26:32;;;;;;;29.70;22.67;;;3.30;99.90;;;;;;5046539;28;20056;-74
2020/12/05 02:28:59;;;;;;;29.15;23.20;;;3.10;99.90;;;;;;5046679;28;20815;-73
2020/12/05 02:31:26;;;;;;;30.52;22.33;;;3.10;99.90;;;;;;5030072;28;20510;-72
2020/12/05 02:33:52;;;;;;;30.60;23.00;;;3.30;99.90;;;;;;5029986;28;20041;-73
2020/12/05 02:36:19;;;;;;;27.30;23.33;;;3.30;99.90;;;;;;5046068;28;20049;-74
2020/12/05 02:39:00;;;;;;;28.10;21.90;;;3.20;99.90;;;;;;5046109;28;20051;-74
2020/12/05 02:41:27;;;;;;;31.95;23.35;;;3.30;99.90;;;;;;5030054;28;20727;-74
2020/12/05 02:43:54;;;;;;;31.80;22.88;;;3.20;99.90;;;;;;5020682;28;20096;-74
2020/12/05 02:46:21;;;;;;;28.70;22.98;;;3.30;99.90;;;;;;5045698;28;20129;-73
2020/12/05 02:48:47;;;;;;;34.53;25.02;;;3.30;99.90;;;;;;5046848;28;20041;-75
2020/12/05 02:51:14;;;;;;;26.33;21.35;;;3.30;99.90;;;;;;5035808;28;20087;-72
2020/12/05 02:53:40;;;;;;;30.63;22.95;;;3.20;99.90;;;;;;5042907;28;20413;-71
2020/12/05 02:56:06;;;;;;;34.30;23.80;;;3.00;99.90;;;;;;5024307;28;20523;-75
2020/12/05 02:58:32;;;;;;;29.02;21.92;;;3.00;99.90;;;;;;4993520;28;20055;-72
2020/12/05 03:00:59;;;;;;;32.08;23.90;;;3.00;99.90;;;;;;5029219;28;20154;-72
2020/12/05 03:03:26;;;;;;;34.72;24.73;;;3.00;99.90;;;;;;5043649;28;20053;-73
2020/12/05 03:05:52;;;;;;;33.38;24.27;;;3.00;99.90;;;;;;5044535;28;20070;-73
2020/12/05 03:08:18;;;;;;;35.33;25.55;;;3.00;99.90;;;;;;5044785;28;20505;-73
2020/12/05 03:10:45;;;;;;;31.90;25.02;;;3.00;99.90;;;;;;5045689;28;20717;-73
2020/12/05 03:13:11;;;;;;;33.28;24.75;;;3.10;99.90;;;;;;5046716;28;20041;-73
2020/12/05 03:15:37;;;;;;;32.10;24.65;;;3.00;99.90;;;;;;5046888;28;20074;-72
2020/12/05 03:18:03;;;;;;;34.50;24.08;;;3.10;99.90;;;;;;5028036;28;20055;-71
2020/12/05 03:20:30;;;;;;;36.42;24.85;;;3.20;99.90;;;;;;5046601;28;20135;-72
2020/12/05 03:22:56;;;;;;;32.35;24.88;;;3.10;99.90;;;;;;5044801;28;20056;-73
2020/12/05 03:25:22;;;;;;;32.20;25.08;;;3.10;99.90;;;;;;5029044;28;20045;-73
2020/12/05 03:27:49;;;;;;;32.22;24.70;;;3.20;99.90;;;;;;5046313;28;20045;-74
2020/12/05 03:30:15;;;;;;;36.25;25.35;;;3.10;99.90;;;;;;5045089;28;20055;-73
2020/12/05 03:32:42;;;;;;;31.85;23.42;;;3.00;99.90;;;;;;5028860;28;20399;-73
2020/12/05 03:35:08;;;;;;;37.65;26.00;;;2.90;99.90;;;;;;5027180;28;20048;-73
2020/12/05 03:37:36;;;;;;;41.65;28.58;;;2.70;99.90;;;;;;5037542;28;20060;-74
2020/12/05 03:40:04;;;;;;;37.80;26.55;;;2.60;99.90;;;;;;5045356;28;20080;-73
2020/12/05 03:42:30;;;;;;;40.47;27.83;;;2.40;99.90;;;;;;5012154;28;20041;-72
2020/12/05 03:44:56;;;;;;;54.03;30.23;;;2.20;99.90;;;;;;5044931;28;20061;-73
2020/12/05 03:47:23;;;;;;;44.40;28.55;;;2.10;99.90;;;;;;5045441;28;20053;-73
2020/12/05 03:49:49;;;;;;;48.35;32.25;;;2.10;99.90;;;;;;5028417;28;20486;-73
2020/12/05 03:52:15;;;;;;;57.15;34.45;;;2.00;99.90;;;;;;5028533;28;20453;-76
2020/12/05 03:54:42;;;;;;;47.22;34.95;;;2.00;99.90;;;;;;5046558;28;20136;-74
2020/12/05 03:57:08;;;;;;;57.08;35.65;;;2.00;99.90;;;;;;5025108;28;20076;-73
2020/12/05 03:59:35;;;;;;;57.10;36.80;;;2.20;99.90;;;;;;5007455;28;20045;-72
2020/12/05 04:02:01;;;;;;;60.28;38.17;;;2.10;99.90;;;;;;5025284;28;20049;-72
2020/12/05 04:04:27;;;;;;;59.78;37.40;;;2.10;99.90;;;;;;5024312;28;20060;-72
2020/12/05 04:06:56;;;;;;;57.65;37.30;;;2.10;99.90;;;;;;5024120;28;20738;-72
2020/12/05 04:09:22;;;;;;;62.72;37.90;;;2.20;99.90;;;;;;5026147;28;20046;-72
2020/12/05 04:11:48;;;;;;;62.00;37.88;;;2.30;99.90;;;;;;5046133;28;20063;-72
2020/12/05 04:14:15;;;;;;;68.38;39.58;;;2.40;99.90;;;;;;5045891;28;20124;-73
2020/12/05 04:16:41;;;;;;;72.35;39.88;;;2.30;99.90;;;;;;5043385;28;20053;-73
2020/12/05 04:19:07;;;;;;;70.45;38.70;;;2.20;99.90;;;;;;5027211;28;20036;-73
2020/12/05 04:21:33;;;;;;;70.32;39.40;;;2.20;99.90;;;;;;5027820;28;20794;-74
2020/12/05 04:24:00;;;;;;;70.43;39.67;;;2.20;99.90;;;;;;5046167;28;20064;-74
2020/12/05 04:26:26;;;;;;;71.55;40.03;;;2.20;99.90;;;;;;5032991;28;20106;-74
2020/12/05 04:28:53;;;;;;;71.05;39.95;;;2.20;99.90;;;;;;5023896;28;20046;-74
2020/12/05 04:31:19;;;;;;;67.85;41.13;;;2.20;99.90;;;;;;5023973;28;20065;-74
2020/12/05 04:33:46;;;;;;;69.35;39.97;;;2.20;99.90;;;;;;5041070;28;20136;-74
2020/12/05 04:36:12;;;;;;;67.35;40.47;;;2.20;99.90;;;;;;5044465;28;20056;-76
2020/12/05 04:38:38;;;;;;;73.40;40.85;;;2.20;99.90;;;;;;5012413;28;20529;-75
2020/12/05 04:41:05;;;;;;;73.47;40.67;;;2.20;99.90;;;;;;5046934;28;20080;-74
2020/12/05 04:43:34;;;;;;;65.28;38.83;;;2.20;99.90;;;;;;5044791;28;20053;-74
2020/12/05 04:46:01;;;;;;;73.38;39.28;;;2.10;99.90;;;;;;5043739;28;20059;-74
2020/12/05 04:48:31;;;;;;;73.65;38.92;;;2.20;99.90;;;;;;5044940;28;20513;-74
2020/12/05 04:51:01;;;;;;;76.28;40.28;;;2.20;99.90;;;;;;5046072;28;20063;-74
2020/12/05 04:53:29;;;;;;;70.65;38.40;;;2.10;99.90;;;;;;5043844;28;20052;-73
2020/12/05 04:55:59;;;;;;;75.30;41.38;;;2.10;99.90;;;;;;5038061;28;20109;-74
2020/12/05 04:58:25;;;;;;;71.22;38.90;;;2.00;99.90;;;;;;5027038;28;20063;-75
2020/12/05 05:00:54;;;;;;;76.38;38.65;;;2.00;99.90;;;;;;5043365;28;20053;-75
2020/12/05 05:03:24;;;;;;;76.00;38.67;;;2.00;99.90;;;;;;5027483;28;20083;-75
2020/12/05 05:05:57;;;;;;;72.93;40.42;;;2.10;99.90;;;;;;5043560;28;20088;-75
2020/12/05 05:08:26;;;;;;;73.15;38.08;;;2.10;99.90;;;;;;5027493;28;20037;-75
2020/12/05 05:11:13;;;;;;;70.22;36.42;;;2.10;99.90;;;;;;5044870;28;20065;-74
2020/12/05 05:14:02;;;;;;;70.72;36.60;;;2.10;99.90;;;;;;5026902;28;20160;-75
2020/12/05 05:16:29;;;;;;;78.07;38.40;;;2.00;99.90;;;;;;5025485;28;20128;-75
2020/12/05 05:18:56;;;;;;;72.68;36.78;;;2.00;99.90;;;;;;5025999;28;20088;-75
2020/12/05 05:21:40;;;;;;;75.78;37.58;;;2.00;99.90;;;;;;5024019;28;20076;-75
2020/12/05 05:24:17;;;;;;;79.20;38.03;;;2.00;99.90;;;;;;5044115;28;20084;-76
2020/12/05 05:26:57;;;;;;;83.30;37.58;;;2.00;99.90;;;;;;5007891;28;20049;-76
2020/12/05 05:29:40;;;;;;;67.70;32.90;;;1.90;99.90;;;;;;5028317;28;20033;-75
2020/12/05 05:32:11;;;;;;;71.55;33.10;;;1.90;99.90;;;;;;5043606;28;20064;-76
2020/12/05 05:34:37;;;;;;;63.97;33.97;;;1.90;99.90;;;;;;5027892;28;20083;-76
2020/12/05 05:37:18;;;;;;;67.05;34.70;;;1.90;99.90;;;;;;5042853;28;20061;-76
2020/12/05 05:39:47;;;;;;;70.95;31.92;;;1.80;99.90;;;;;;5031594;28;20057;-76
2020/12/05 05:42:33;;;;;;;71.15;34.03;;;1.90;99.90;;;;;;5015456;28;20873;-77
2020/12/05 05:45:24;;;;;;;71.63;34.80;;;1.90;99.90;;;;;;5048341;28;20063;-76
2020/12/05 05:48:02;;;;;;;67.75;33.08;;;1.90;99.90;;;;;;5048194;28;20516;-75
2020/12/05 05:50:36;;;;;;;69.95;32.20;;;1.90;99.90;;;;;;5014314;28;20053;-76
2020/12/05 05:53:06;;;;;;;58.13;28.87;;;2.00;99.90;;;;;;5047773;28;20510;-76
2020/12/05 05:55:48;;;;;;;53.42;29.00;;;2.00;99.90;;;;;;5041609;28;20077;-75
2020/12/05 05:58:17;;;;;;;57.00;29.23;;;2.00;99.90;;;;;;5029070;28;20482;-76
2020/12/05 06:00:45;;;;;;;55.08;28.77;;;2.00;99.90;;;;;;5027344;28;20053;-76
2020/12/05 06:03:28;;;;;;;52.65;27.85;;;1.90;99.90;;;;;;5027061;28;20053;-76
2020/12/05 06:05:57;;;;;;;58.92;27.95;;;2.00;99.90;;;;;;5010045;28;20061;-75
2020/12/05 06:08:25;;;;;;;49.78;26.27;;;2.00;99.90;;;;;;5027050;28;20037;-76
2020/12/05 06:11:11;;;;;;;46.50;25.67;;;2.00;99.90;;;;;;5028923;28;20476;-75
2020/12/05 06:13:39;;;;;;;52.22;27.27;;;2.00;99.90;;;;;;5046725;28;20056;-74
2020/12/05 06:16:05;;;;;;;50.00;27.30;;;2.00;99.90;;;;;;5029378;28;20708;-75
2020/12/05 06:18:32;;;;;;;54.42;28.05;;;1.90;99.90;;;;;;5045385;28;20141;-75
2020/12/05 06:20:58;;;;;;;50.90;26.58;;;1.90;99.90;;;;;;5045830;28;20056;-75
2020/12/05 06:23:45;;;;;;;51.58;27.65;;;1.90;99.90;;;;;;5028500;28;20131;-75
2020/12/05 06:26:26;;;;;;;47.70;24.75;;;1.90;99.90;;;;;;5046844;28;20056;-75
2020/12/05 06:28:53;;;;;;;50.30;25.02;;;1.90;99.90;;;;;;5046169;28;20053;-75
2020/12/05 06:31:42;;;;;;;44.95;26.55;;;1.80;99.90;;;;;;5027099;28;20107;-75
2020/12/05 06:34:10;;;;;;;44.55;23.80;;;1.70;99.90;;;;;;5009478;28;20045;-75
2020/12/05 06:36:37;;;;;;;49.80;26.20;;;1.70;99.90;;;;;;5025732;28;20049;-74
2020/12/05 06:39:04;;;;;;;49.78;23.85;;;1.70;99.90;;;;;;5026789;28;20060;-74
2020/12/05 06:41:34;;;;;;;44.70;23.27;;;1.70;99.90;;;;;;5008957;28;20084;-75
2020/12/05 06:44:33;;;;;;;29.40;17.00;;;1.70;99.90;;;;;;5043029;28;20557;-75
2020/12/05 06:47:02;;;;;;;34.45;20.48;;;1.70;99.90;;;;;;5044734;28;20056;-76
2020/12/05 06:49:40;;;;;;;42.63;21.25;;;1.60;99.90;;;;;;5044019;28;20683;-75
2020/12/05 06:52:22;;;;;;;35.80;19.15;;;1.70;99.90;;;;;;5031316;28;20056;-75
2020/12/05 06:54:53;;;;;;;39.78;20.58;;;1.70;99.90;;;;;;5037122;28;20616;-75
2020/12/05 06:57:22;;;;;;;33.72;20.88;;;1.70;99.90;;;;;;5019300;28;20628;-74
2020/12/05 06:59:50;;;;;;;37.92;20.67;;;1.80;99.90;;;;;;5044766;28;20061;-75
2020/12/05 07:02:33;;;;;;;40.97;23.52;;;1.90;99.90;;;;;;5041082;28;20098;-73
2020/12/05 07:05:18;;;;;;;33.10;16.95;;;2.00;99.90;;;;;;5049825;28;20152;-74
2020/12/05 07:07:58;;;;;;;30.35;16.70;;;2.00;99.90;;;;;;5034525;28;20114;-75
2020/12/05 07:10:48;;;;;;;28.55;17.73;;;2.00;99.90;;;;;;5052061;28;20145;-74
2020/12/05 07:13:17;;;;;;;30.55;15.95;;;2.10;99.90;;;;;;5052547;28;20052;-74
2020/12/05 07:15:45;;;;;;;30.73;18.05;;;2.20;99.90;;;;;;5051522;28;20040;-74
2020/12/05 07:18:25;;;;;;;31.85;17.70;;;2.20;99.90;;;;;;5047827;28;20093;-74
2020/12/05 07:20:54;;;;;;;36.80;18.98;;;2.00;99.90;;;;;;5044967;28;20118;-73
2020/12/05 07:23:21;;;;;;;28.85;17.75;;;1.90;99.90;;;;;;5043624;28;20494;-72
2020/12/05 07:25:47;;;;;;;29.02;17.65;;;1.90;99.90;;;;;;5027898;28;20049;-72
2020/12/05 07:28:14;;;;;;;27.95;17.05;;;2.10;99.90;;;;;;5036361;28;20049;-73
2020/12/05 07:30:40;;;;;;;33.90;20.42;;;2.30;99.90;;;;;;5023308;28;20049;-72
2020/12/05 07:33:07;;;;;;;32.72;18.00;;;2.30;99.90;;;;;;5043894;28;20049;-73
2020/12/05 07:35:35;;;;;;;38.40;19.27;;;2.30;99.90;;;;;;5045245;28;20500;-73
2020/12/05 07:38:11;;;;;;;33.78;18.70;;;2.40;99.90;;;;;;5044811;28;20147;-73
2020/12/05 07:40:37;;;;;;;38.13;19.33;;;2.40;99.90;;;;;;5028612;28;20818;-73
2020/12/05 07:43:04;;;;;;;33.30;18.13;;;2.40;99.90;;;;;;5050066;28;20063;-72
2020/12/05 07:45:30;;;;;;;31.05;17.95;;;2.40;99.90;;;;;;5050891;28;20068;-72
2020/12/05 07:47:57;;;;;;;34.22;19.08;;;2.40;99.90;;;;;;5033733;28;20057;-73
2020/12/05 07:50:31;;;;;;;26.10;16.70;;;2.40;99.90;;;;;;5051027;28;20537;-72
2020/12/05 07:52:58;;;;;;;29.08;17.48;;;2.30;99.90;;;;;;5050249;28;20568;-72
2020/12/05 07:55:28;;;;;;;31.92;18.55;;;2.30;99.90;;;;;;5044653;28;20485;-72
2020/12/05 07:57:54;;;;;;;30.70;16.38;;;2.30;99.90;;;;;;5052991;28;20555;-71
2020/12/05 08:00:22;;;;;;;30.95;15.93;;;2.30;99.90;;;;;;5053180;28;20516;-73
2020/12/05 08:03:10;;;;;;;26.63;15.70;;;2.30;99.90;;;;;;5048330;28;20063;-72
2020/12/05 08:05:54;;;;;;;22.48;14.30;;;2.30;99.90;;;;;;5046317;28;20060;-73
2020/12/05 08:08:20;;;;;;;24.75;14.13;;;2.40;99.90;;;;;;5046208;28;20053;-74
2020/12/05 08:10:47;;;;;;;23.27;13.73;;;2.40;99.90;;;;;;5044973;28;20053;-73
2020/12/05 08:13:26;;;;;;;24.30;15.43;;;2.40;99.90;;;;;;5043627;28;20591;-74
2020/12/05 08:16:05;;;;;;;24.02;14.93;;;2.50;99.90;;;;;;5041087;28;20048;-75
2020/12/05 08:18:34;;;;;;;26.00;15.70;;;2.60;99.90;;;;;;5024142;28;20518;-73
2020/12/05 08:21:03;;;;;;;24.70;14.77;;;2.60;99.90;;;;;;5041082;28;20140;-74
2020/12/05 08:23:33;;;;;;;29.02;17.45;;;2.60;99.90;;;;;;5044153;28;20055;-74
2020/12/05 08:26:04;;;;;;;29.77;17.27;;;2.70;99.90;;;;;;5040022;28;20072;-74
2020/12/05 08:28:39;;;;;;;26.05;17.00;;;2.70;99.90;;;;;;5043934;28;20063;-74
2020/12/05 08:31:07;;;;;;;28.88;18.48;;;2.80;99.90;;;;;;5026591;28;20052;-74
2020/12/05 08:33:49;;;;;;;32.30;18.00;;;2.80;99.90;;;;;;5026064;28;20045;-74
2020/12/05 08:36:18;;;;;;;30.52;18.02;;;2.80;99.90;;;;;;5043307;28;20052;-73
2020/12/05 08:38:45;;;;;;;27.98;19.23;;;2.90;99.90;;;;;;5043540;28;20056;-75
2020/12/05 08:41:11;;;;;;;30.10;19.65;;;3.00;99.90;;;;;;5042403;28;20121;-74
2020/12/05 08:43:38;;;;;;;29.67;19.77;;;3.00;99.90;;;;;;5043114;28;20049;-74
2020/12/05 08:46:23;;;;;;;31.73;19.60;;;2.90;99.90;;;;;;5042626;28;20052;-72
2020/12/05 08:48:51;;;;;;;24.13;16.65;;;3.00;99.90;;;;;;5024779;28;20055;-74
2020/12/05 08:51:25;;;;;;;23.55;16.90;;;3.10;99.90;;;;;;5042655;28;20063;-76
2020/12/05 08:54:07;;;;;;;21.45;15.25;;;3.30;99.90;;;;;;5043752;28;20057;-73
2020/12/05 08:56:33;;;;;;;26.80;15.73;;;3.50;99.90;;;;;;5039233;28;20658;-74
2020/12/05 08:58:59;;;;;;;22.95;14.45;;;3.60;99.90;;;;;;5044172;28;20064;-74
2020/12/05 09:01:42;;;;;;;19.83;14.23;;;3.70;99.90;;;;;;5039234;28;20068;-75
2020/12/05 09:04:12;;;;;;;18.80;13.95;;;3.90;99.90;;;;;;5041262;28;20060;-73
2020/12/05 09:06:39;;;;;;;31.65;19.65;;;4.20;99.90;;;;;;5042343;28;20045;-73
2020/12/05 09:09:07;;;;;;;16.85;12.70;;;4.50;99.90;;;;;;5044007;28;20041;-75
2020/12/05 09:11:33;;;;;;;18.52;14.05;;;4.60;99.90;;;;;;5042986;28;20056;-74
2020/12/05 09:13:59;;;;;;;18.08;14.15;;;4.90;99.90;;;;;;5044399;28;20163;-75
2020/12/05 09:16:33;;;;;;;16.92;14.18;;;5.20;99.90;;;;;;5041393;28;20132;-74
2020/12/05 09:18:59;;;;;;;16.15;14.45;;;5.30;99.90;;;;;;5009424;28;20067;-73
2020/12/05 09:21:26;;;;;;;14.63;13.13;;;5.50;99.90;;;;;;5025982;28;20141;-73
2020/12/05 09:24:00;;;;;;;14.40;13.10;;;5.50;99.90;;;;;;5042657;28;20049;-73
2020/12/05 09:26:26;;;;;;;17.05;14.80;;;5.40;99.90;;;;;;5005969;28;20909;-73
2020/12/05 09:28:53;;;;;;;15.68;14.23;;;5.40;99.90;;;;;;5038694;28;20510;-73
2020/12/05 09:31:19;;;;;;;17.00;15.25;;;5.40;99.90;;;;;;5042571;28;20052;-73
2020/12/05 09:33:46;;;;;;;16.33;14.70;;;5.50;99.90;;;;;;5042808;28;20820;-73
2020/12/05 09:36:13;;;;;;;19.10;16.95;;;5.40;99.90;;;;;;5042068;28;20147;-73
2020/12/05 09:38:39;;;;;;;15.88;14.27;;;5.40;99.90;;;;;;5043929;28;20063;-74
2020/12/05 09:41:06;;;;;;;16.00;14.45;;;5.30;99.90;;;;;;5043722;28;20145;-73
2020/12/05 09:43:32;;;;;;;16.77;15.07;;;5.20;99.90;;;;;;5025227;28;20080;-74
2020/12/05 09:46:00;;;;;;;16.13;14.48;;;5.30;99.90;;;;;;5042252;28;20576;-74
2020/12/05 09:48:26;;;;;;;18.15;14.85;;;5.30;99.90;;;;;;5042680;28;20053;-75
2020/12/05 09:50:52;;;;;;;16.27;14.45;;;5.40;99.90;;;;;;5043431;28;20053;-74
2020/12/05 09:53:19;;;;;;;17.25;15.48;;;5.40;99.90;;;;;;5033874;28;20053;-75
2020/12/05 09:55:45;;;;;;;15.95;14.40;;;5.30;99.90;;;;;;5031509;28;20140;-75
2020/12/05 09:58:13;;;;;;;18.75;15.90;;;5.20;99.90;;;;;;5023212;28;20677;-75
2020/12/05 10:00:39;;;;;;;19.25;15.73;;;5.20;99.90;;;;;;5039831;28;20049;-74
2020/12/05 10:03:06;;;;;;;20.95;16.10;;;5.10;99.90;;;;;;5034773;28;20506;-74
2020/12/05 10:05:32;;;;;;;21.98;18.23;;;4.90;99.90;;;;;;5037364;28;20606;-74
2020/12/05 10:07:58;;;;;;;20.42;17.52;;;4.70;99.90;;;;;;5018907;28;20076;-73
2020/12/05 10:10:25;;;;;;;21.00;17.25;;;4.60;99.90;;;;;;5024003;28;20429;-74
2020/12/05 10:12:52;;;;;;;20.83;17.20;;;4.40;99.90;;;;;;5032699;28;20473;-74
2020/12/05 10:15:18;;;;;;;19.98;16.83;;;4.40;99.90;;;;;;5037813;28;20057;-72
2020/12/05 10:17:44;;;;;;;18.05;15.88;;;4.40;99.90;;;;;;5043577;28;20063;-75
2020/12/05 10:20:11;;;;;;;19.77;17.65;;;4.30;99.90;;;;;;5042232;28;20052;-73
2020/12/05 10:22:37;;;;;;;22.02;18.67;;;4.30;99.90;;;;;;5042584;28;20103;-74
2020/12/05 10:25:05;;;;;;;21.08;18.70;;;4.20;99.90;;;;;;5046560;28;20052;-74
2020/12/05 10:27:31;;;;;;;21.92;19.42;;;3.90;99.90;;;;;;5046142;28;20094;-72
2020/12/05 10:29:59;;;;;;;23.88;18.70;;;3.80;99.90;;;;;;5045196;28;20045;-72
2020/12/05 10:32:25;;;;;;;22.20;19.80;;;3.70;99.90;;;;;;5044854;28;20048;-74
2020/12/05 10:34:51;;;;;;;23.00;20.58;;;3.50;99.90;;;;;;5038820;28;20577;-75
2020/12/05 10:37:18;;;;;;;26.05;20.40;;;3.40;99.90;;;;;;5041472;28;20072;-74
2020/12/05 10:39:44;;;;;;;22.17;19.13;;;3.50;99.90;;;;;;5045561;28;20053;-73
2020/12/05 10:42:10;;;;;;;26.13;19.27;;;3.50;99.90;;;;;;5045763;28;20045;-73
2020/12/05 10:44:37;;;;;;;24.67;21.02;;;3.60;99.90;;;;;;5040634;28;20132;-73
2020/12/05 10:47:04;;;;;;;24.90;21.45;;;3.50;99.90;;;;;;5040938;28;20131;-73
2020/12/05 10:49:30;;;;;;;21.88;19.10;;;3.50;99.90;;;;;;5026951;28;20038;-74
2020/12/05 10:51:56;;;;;;;27.15;22.33;;;3.50;99.90;;;;;;5028541;28;20502;-74
2020/12/05 10:54:24;;;;;;;24.02;20.05;;;3.60;99.90;;;;;;5045853;28;20049;-73
2020/12/05 10:56:50;;;;;;;24.35;21.25;;;3.50;99.90;;;;;;5038476;28;20060;-74
2020/12/05 10:59:17;;;;;;;27.70;21.15;;;3.60;99.90;;;;;;5021829;28;20052;-73
2020/12/05 11:01:43;;;;;;;22.30;19.35;;;3.60;99.90;;;;;;5037492;28;20060;-73
2020/12/05 11:04:09;;;;;;;23.63;20.05;;;3.60;99.90;;;;;;5022014;28;20076;-73
2020/12/05 11:06:36;;;;;;;22.00;19.70;;;3.70;99.90;;;;;;5041027;28;20049;-73
2020/12/05 11:09:02;;;;;;;23.52;20.17;;;3.70;99.90;;;;;;5028560;28;20056;-75
2020/12/05 11:11:29;;;;;;;22.85;18.75;;;3.70;99.90;;;;;;5039421;28;20395;-74
2020/12/05 11:13:55;;;;;;;22.63;19.00;;;3.60;99.90;;;;;;5045119;28;20507;-74
2020/12/05 11:16:23;;;;;;;26.85;21.38;;;3.40;99.90;;;;;;5042252;28;20627;-74
2020/12/05 11:18:50;;;;;;;24.25;21.20;;;3.30;99.90;;;;;;5045256;28;20140;-74
2020/12/05 11:21:16;;;;;;;31.42;22.42;;;3.30;99.90;;;;;;5042981;28;20637;-74
2020/12/05 11:23:43;;;;;;;26.80;21.48;;;3.30;99.90;;;;;;5045549;28;20687;-72
2020/12/05 11:26:11;;;;;;;23.52;20.10;;;3.40;99.90;;;;;;5036492;28;20053;-72
2020/12/05 11:28:37;;;;;;;26.70;20.95;;;3.40;99.90;;;;;;5039657;28;20058;-72
2020/12/05 11:31:03;;;;;;;21.85;19.08;;;3.40;99.90;;;;;;5025131;28;20055;-73
2020/12/05 11:33:30;;;;;;;28.38;21.73;;;3.40;99.90;;;;;;5045322;28;20488;-74
2020/12/05 11:35:56;;;;;;;24.38;19.23;;;3.50;99.90;;;;;;5045105;28;20099;-73
2020/12/05 11:38:22;;;;;;;27.27;19.45;;;3.50;99.90;;;;;;5045514;28;20079;-74
2020/12/05 11:40:49;;;;;;;25.30;18.65;;;3.50;99.90;;;;;;5027870;28;20156;-73
2020/12/05 11:43:16;;;;;;;27.85;20.35;;;3.50;99.90;;;;;;5046793;28;20071;-73
2020/12/05 11:45:42;;;;;;;26.33;21.10;;;3.50;99.90;;;;;;5038542;28;20049;-73
2020/12/05 11:48:09;;;;;;;23.48;18.95;;;3.60;99.90;;;;;;5034892;28;20061;-74
2020/12/05 11:50:36;;;;;;;24.63;19.33;;;3.80;99.90;;;;;;5020443;28;20037;-73
2020/12/05 11:53:04;;;;;;;24.60;20.08;;;3.90;99.90;;;;;;5045804;28;20051;-73
2020/12/05 11:55:30;;;;;;;27.50;23.05;;;3.90;99.90;;;;;;5041990;28;20060;-73
2020/12/05 11:57:58;;;;;;;24.67;20.33;;;4.00;99.90;;;;;;5040481;28;20059;-72
2020/12/05 12:00:25;;;;;;;26.25;22.35;;;4.00;99.90;;;;;;5024651;28;20426;-73
2020/12/05 12:02:55;;;;;;;24.95;19.75;;;4.00;99.90;;;;;;5024883;28;20772;-74
2020/12/05 12:05:21;;;;;;;25.33;19.40;;;3.90;99.90;;;;;;5030046;28;20056;-73
2020/12/05 12:07:49;;;;;;;22.02;17.90;;;3.90;99.90;;;;;;5006464;28;20172;-72
2020/12/05 12:10:15;;;;;;;27.88;20.63;;;3.80;99.90;;;;;;5027020;28;20056;-74
2020/12/05 12:12:42;;;;;;;30.33;22.05;;;3.80;99.90;;;;;;5043287;28;20103;-73
2020/12/05 12:15:09;;;;;;;23.83;20.65;;;3.90;99.90;;;;;;5037854;28;20055;-73
2020/12/05 12:17:35;;;;;;;28.80;22.55;;;3.90;99.90;;;;;;5019173;28;20048;-73
2020/12/05 12:20:02;;;;;;;31.60;24.83;;;3.80;99.90;;;;;;5023822;28;20504;-73
2020/12/05 12:22:29;;;;;;;29.38;22.83;;;3.80;99.90;;;;;;5005541;28;20516;-74
2020/12/05 12:24:55;;;;;;;26.27;21.05;;;3.90;99.90;;;;;;5036705;28;20041;-72
2020/12/05 12:27:22;;;;;;;27.77;22.38;;;3.90;99.90;;;;;;5040061;28;20056;-74
2020/12/05 12:29:48;;;;;;;26.67;21.65;;;3.90;99.90;;;;;;5033278;28;20045;-73
2020/12/05 12:32:14;;;;;;;28.60;21.52;;;3.90;99.90;;;;;;5042960;28;20135;-73
2020/12/05 12:34:41;;;;;;;28.02;21.98;;;3.90;99.90;;;;;;5042353;28;20051;-73
2020/12/05 12:37:07;;;;;;;28.23;20.98;;;4.00;99.90;;;;;;5042597;28;20425;-73
2020/12/05 12:39:34;;;;;;;28.10;21.85;;;3.90;99.90;;;;;;5044392;28;20117;-74
2020/12/05 12:42:00;;;;;;;27.55;22.30;;;3.90;99.90;;;;;;5027044;28;20594;-74
2020/12/05 12:44:26;;;;;;;30.63;21.92;;;3.90;99.90;;;;;;5026653;28;20274;-74